sensor_id;sensor_type;location;lat;lon;timestamp;temperature;humidity
63960;DHT22;50136;51.374;0.096;2022-09-13T00:09:14;18.60;99.90
63960;DHT22;50136;51.374;0.096;2022-09-13T00:19:17;18.60;99.90
63960;DHT22;50136;51.374;0.096;2022-09-13T00:29:19;18.50;99.90
63960;DHT22;50136;51.374;0.096;2022-09-13T00:39:22;18.50;99.90
63960;DHT22;50136;51.374;0.096;2022-09-13T00:49:26;18.40;99.90
63960;DHT22;50136;51.374;0.096;2022-09-13T00:59:32;18.30;99.90
63960;DHT22;50136;51.374;0.096;2022-09-13T01:09:37;18.20;99.90
63960;DHT22;50136;51.374;0.096;2022-09-13T01:19:41;18.10;99.90
63960;DHT22;50136;51.374;0.096;2022-09-13T01:40:16;17.60;99.90
63960;DHT22;50136;51.374;0.096;2022-09-13T01:50:20;17.60;99.90
63960;DHT22;50136;51.374;0.096;2022-09-13T02:00:25;17.50;99.90
63960;DHT22;50136;51.374;0.096;2022-09-13T02:10:30;17.50;99.90
63960;DHT22;50136;51.374;0.096;2022-09-13T02:20:35;17.40;99.90
63960;DHT22;50136;51.374;0.096;2022-09-13T02:30:39;17.40;99.90
63960;DHT22;50136;51.374;0.096;2022-09-13T02:40:45;17.30;99.90
63960;DHT22;50136;51.374;0.096;2022-09-13T02:50:51;17.20;99.90
63960;DHT22;50136;51.374;0.096;2022-09-13T03:00:57;17.30;99.90
63960;DHT22;50136;51.374;0.096;2022-09-13T03:11:01;17.20;99.90
63960;DHT22;50136;51.374;0.096;2022-09-13T03:21:11;17.20;99.90
63960;DHT22;50136;51.374;0.096;2022-09-13T03:31:20;17.20;99.90
63960;DHT22;50136;51.374;0.096;2022-09-13T03:41:29;17.40;99.90
63960;DHT22;50136;51.374;0.096;2022-09-13T03:51:32;17.70;99.90
63960;DHT22;50136;51.374;0.096;2022-09-13T04:01:35;18.10;99.90
63960;DHT22;50136;51.374;0.096;2022-09-13T04:11:37;18.20;99.90
63960;DHT22;50136;51.374;0.096;2022-09-13T04:21:40;18.30;99.90
63960;DHT22;50136;51.374;0.096;2022-09-13T04:31:42;18.40;99.90
63960;DHT22;50136;51.374;0.096;2022-09-13T04:41:45;18.40;99.90
63960;DHT22;50136;51.374;0.096;2022-09-13T04:51:47;18.40;99.90
63960;DHT22;50136;51.374;0.096;2022-09-13T05:01:50;18.40;99.90
63960;DHT22;50136;51.374;0.096;2022-09-13T05:11:52;18.40;99.90
63960;DHT22;50136;51.374;0.096;2022-09-13T05:21:55;18.40;99.90
63960;DHT22;50136;51.374;0.096;2022-09-13T05:31:57;18.40;99.90
63960;DHT22;50136;51.374;0.096;2022-09-13T05:42:00;18.30;99.90
63960;DHT22;50136;51.374;0.096;2022-09-13T05:52:02;18.30;99.90
63960;DHT22;50136;51.374;0.096;2022-09-13T06:02:05;18.40;99.90
63960;DHT22;50136;51.374;0.096;2022-09-13T06:12:07;18.30;99.90
63960;DHT22;50136;51.374;0.096;2022-09-13T06:22:10;18.30;99.90
63960;DHT22;50136;51.374;0.096;2022-09-13T06:32:12;18.30;99.90
63960;DHT22;50136;51.374;0.096;2022-09-13T06:42:15;18.40;99.90
63960;DHT22;50136;51.374;0.096;2022-09-13T06:52:17;18.40;99.90
63960;DHT22;50136;51.374;0.096;2022-09-13T07:02:20;18.50;99.90
63960;DHT22;50136;51.374;0.096;2022-09-13T07:12:22;18.60;99.90
63960;DHT22;50136;51.374;0.096;2022-09-13T07:22:25;18.50;99.90
63960;DHT22;50136;51.374;0.096;2022-09-13T07:32:26;18.50;99.90
63960;DHT22;50136;51.374;0.096;2022-09-13T07:42:29;18.50;99.90
63960;DHT22;50136;51.374;0.096;2022-09-13T07:52:31;18.40;99.90
63960;DHT22;50136;51.374;0.096;2022-09-13T08:02:34;18.50;99.90
63960;DHT22;50136;51.374;0.096;2022-09-13T08:12:36;18.50;99.90
63960;DHT22;50136;51.374;0.096;2022-09-13T08:22:52;18.40;99.90
63960;DHT22;50136;51.374;0.096;2022-09-13T08:32:55;18.40;99.90
63960;DHT22;50136;51.374;0.096;2022-09-13T08:42:59;18.50;99.90
63960;DHT22;50136;51.374;0.096;2022-09-13T08:53:05;18.90;99.90
63960;DHT22;50136;51.374;0.096;2022-09-13T09:03:13;19.30;99.90
63960;DHT22;50136;51.374;0.096;2022-09-13T09:13:18;19.20;99.90
63960;DHT22;50136;51.374;0.096;2022-09-13T09:23:28;19.00;99.90
63960;DHT22;50136;51.374;0.096;2022-09-13T09:33:44;18.80;99.90
63960;DHT22;50136;51.374;0.096;2022-09-13T09:43:49;18.60;99.90
63960;DHT22;50136;51.374;0.096;2022-09-13T09:53:57;18.50;99.90
63960;DHT22;50136;51.374;0.096;2022-09-13T10:04:04;18.30;99.90
63960;DHT22;50136;51.374;0.096;2022-09-13T10:14:21;18.20;99.90
63960;DHT22;50136;51.374;0.096;2022-09-13T10:24:28;18.10;99.90
63960;DHT22;50136;51.374;0.096;2022-09-13T10:34:30;17.90;99.90
63960;DHT22;50136;51.374;0.096;2022-09-13T10:44:37;17.90;99.90
63960;DHT22;50136;51.374;0.096;2022-09-13T10:54:40;17.90;99.90
63960;DHT22;50136;51.374;0.096;2022-09-13T11:04:52;18.10;99.90
63960;DHT22;50136;51.374;0.096;2022-09-13T11:15:00;18.30;99.90
63960;DHT22;50136;51.374;0.096;2022-09-13T11:25:11;18.30;99.90
63960;DHT22;50136;51.374;0.096;2022-09-13T11:35:21;18.60;99.90
63960;DHT22;50136;51.374;0.096;2022-09-13T11:45:28;18.90;99.90
63960;DHT22;50136;51.374;0.096;2022-09-13T11:55:32;18.80;99.90
63960;DHT22;50136;51.374;0.096;2022-09-13T12:05:38;18.70;99.90
63960;DHT22;50136;51.374;0.096;2022-09-13T12:15:42;19.00;99.90
63960;DHT22;50136;51.374;0.096;2022-09-13T12:25:49;19.00;99.90
63960;DHT22;50136;51.374;0.096;2022-09-13T12:35:57;19.30;99.90
63960;DHT22;50136;51.374;0.096;2022-09-13T12:46:06;19.60;99.90
63960;DHT22;50136;51.374;0.096;2022-09-13T12:56:18;19.20;99.90
63960;DHT22;50136;51.374;0.096;2022-09-13T13:06:29;19.10;99.90
63960;DHT22;50136;51.374;0.096;2022-09-13T13:16:32;19.20;99.90
63960;DHT22;50136;51.374;0.096;2022-09-13T13:26:46;19.30;99.90
63960;DHT22;50136;51.374;0.096;2022-09-13T13:36:48;19.20;99.90
63960;DHT22;50136;51.374;0.096;2022-09-13T13:46:53;19.10;99.90
63960;DHT22;50136;51.374;0.096;2022-09-13T13:56:55;19.10;99.90
63960;DHT22;50136;51.374;0.096;2022-09-13T14:07:01;19.10;99.90
63960;DHT22;50136;51.374;0.096;2022-09-13T14:17:26;18.90;99.90
63960;DHT22;50136;51.374;0.096;2022-09-13T14:27:32;19.00;99.90
63960;DHT22;50136;51.374;0.096;2022-09-13T14:37:35;18.90;99.90
63960;DHT22;50136;51.374;0.096;2022-09-13T14:47:40;18.80;99.90
63960;DHT22;50136;51.374;0.096;2022-09-13T14:57:47;18.70;99.90
63960;DHT22;50136;51.374;0.096;2022-09-13T15:07:52;18.40;99.90
63960;DHT22;50136;51.374;0.096;2022-09-13T15:17:54;18.40;99.90
63960;DHT22;50136;51.374;0.096;2022-09-13T15:27:58;18.40;99.90
63960;DHT22;50136;51.374;0.096;2022-09-13T15:38:00;18.30;99.90
63960;DHT22;50136;51.374;0.096;2022-09-13T15:48:03;18.40;99.90
63960;DHT22;50136;51.374;0.096;2022-09-13T15:58:05;18.50;99.90
63960;DHT22;50136;51.374;0.096;2022-09-13T16:08:09;18.40;99.90
63960;DHT22;50136;51.374;0.096;2022-09-13T16:18:11;18.40;99.90
63960;DHT22;50136;51.374;0.096;2022-09-13T16:28:15;18.30;99.90
63960;DHT22;50136;51.374;0.096;2022-09-13T16:38:18;18.20;99.90
63960;DHT22;50136;51.374;0.096;2022-09-13T16:48:21;18.00;99.90
63960;DHT22;50136;51.374;0.096;2022-09-13T16:58:22;18.00;99.90
63960;DHT22;50136;51.374;0.096;2022-09-13T17:08:26;17.90;99.90
63960;DHT22;50136;51.374;0.096;2022-09-13T17:18:27;17.80;99.90
63960;DHT22;50136;51.374;0.096;2022-09-13T17:39:16;17.60;99.90
63960;DHT22;50136;51.374;0.096;2022-09-13T17:49:18;17.60;99.90
63960;DHT22;50136;51.374;0.096;2022-09-13T17:59:21;17.40;99.90
63960;DHT22;50136;51.374;0.096;2022-09-13T18:09:23;17.40;99.90
63960;DHT22;50136;51.374;0.096;2022-09-13T18:19:26;17.40;99.90
63960;DHT22;50136;51.374;0.096;2022-09-13T18:29:46;17.40;99.90
63960;DHT22;50136;51.374;0.096;2022-09-13T18:39:49;17.30;99.90
63960;DHT22;50136;51.374;0.096;2022-09-13T18:49:51;17.30;99.90
63960;DHT22;50136;51.374;0.096;2022-09-13T18:59:54;17.20;99.90
63960;DHT22;50136;51.374;0.096;2022-09-13T19:09:55;17.10;99.90
63960;DHT22;50136;51.374;0.096;2022-09-13T19:19:59;17.00;99.90
63960;DHT22;50136;51.374;0.096;2022-09-13T19:30:00;17.00;99.90
63960;DHT22;50136;51.374;0.096;2022-09-13T19:40:04;16.80;99.90
63960;DHT22;50136;51.374;0.096;2022-09-13T19:50:07;16.70;99.90
63960;DHT22;50136;51.374;0.096;2022-09-13T20:00:11;16.70;99.90
63960;DHT22;50136;51.374;0.096;2022-09-13T20:10:13;16.70;99.90
63960;DHT22;50136;51.374;0.096;2022-09-13T20:20:16;16.60;99.90
63960;DHT22;50136;51.374;0.096;2022-09-13T20:30:18;16.40;99.90
63960;DHT22;50136;51.374;0.096;2022-09-13T20:40:21;16.30;99.90
63960;DHT22;50136;51.374;0.096;2022-09-13T20:50:23;16.50;99.90
63960;DHT22;50136;51.374;0.096;2022-09-13T21:00:26;16.40;99.90
63960;DHT22;50136;51.374;0.096;2022-09-13T21:10:28;16.30;99.90
63960;DHT22;50136;51.374;0.096;2022-09-13T21:20:31;16.30;99.90
63960;DHT22;50136;51.374;0.096;2022-09-13T21:30:33;16.20;99.90
63960;DHT22;50136;51.374;0.096;2022-09-13T21:40:36;16.20;99.90
63960;DHT22;50136;51.374;0.096;2022-09-13T21:50:38;16.20;99.90
63960;DHT22;50136;51.374;0.096;2022-09-13T22:00:41;16.30;99.90
63960;DHT22;50136;51.374;0.096;2022-09-13T22:10:43;16.20;99.90
63960;DHT22;50136;51.374;0.096;2022-09-13T22:20:46;16.10;99.90
63960;DHT22;50136;51.374;0.096;2022-09-13T22:30:48;16.10;99.90
63960;DHT22;50136;51.374;0.096;2022-09-13T22:40:54;16.20;99.90
63960;DHT22;50136;51.374;0.096;2022-09-13T22:50:56;16.10;99.90
63960;DHT22;50136;51.374;0.096;2022-09-13T23:01:03;16.00;99.90
63960;DHT22;50136;51.374;0.096;2022-09-13T23:11:09;16.10;99.90
63960;DHT22;50136;51.374;0.096;2022-09-13T23:21:13;16.00;99.90
63960;DHT22;50136;51.374;0.096;2022-09-13T23:31:15;16.00;99.90
63960;DHT22;50136;51.374;0.096;2022-09-13T23:41:19;16.00;99.90
63960;DHT22;50136;51.374;0.096;2022-09-13T23:51:21;16.00;99.90
